createdAt,value
2023-05-02T00:01:41.207Z,99537.38
2023-05-02T00:11:42.628Z,99539.69
2023-05-02T00:21:44.080Z,99541.53
2023-05-02T00:31:45.518Z,99550.41
2023-05-02T00:41:46.927Z,99554.34
2023-05-02T00:51:48.319Z,99572.34
2023-05-02T01:02:08.538Z,99579.41
2023-05-02T01:12:21.857Z,99583.50
2023-05-02T01:22:23.234Z,99596.13
2023-05-02T01:32:24.795Z,99601.13
2023-05-02T01:42:26.244Z,99615.78
2023-05-02T01:52:28.184Z,99616.22
2023-05-02T02:02:29.861Z,99627.78
2023-05-02T02:12:35.773Z,99633.97
2023-05-02T02:22:38.775Z,99649.28
2023-05-02T02:32:40.297Z,99647.00
2023-05-02T02:42:52.246Z,99663.75
2023-05-02T02:52:55.746Z,99674.53
2023-05-02T03:02:57.491Z,99679.28
2023-05-02T03:12:59.080Z,99693.56
2023-05-02T03:23:00.612Z,99703.88
2023-05-02T03:33:04.777Z,99703.69
2023-05-02T03:43:06.388Z,99717.53
2023-05-02T03:53:10.000Z,99724.53
2023-05-02T04:03:11.445Z,99720.81
2023-05-02T04:13:12.855Z,99731.09
2023-05-02T04:23:14.331Z,99741.34
2023-05-02T04:33:15.929Z,99744.84
2023-05-02T04:43:17.614Z,99760.13
2023-05-02T04:53:19.896Z,99770.75
2023-05-02T05:03:21.633Z,99794.31
2023-05-02T05:13:23.253Z,99796.59
2023-05-02T05:23:24.793Z,99811.63
2023-05-02T05:33:26.274Z,99821.44
2023-05-02T05:43:28.448Z,99834.53
2023-05-02T05:53:30.058Z,99849.50
2023-05-02T06:03:32.016Z,99861.38
2023-05-02T06:13:33.472Z,99862.84
2023-05-02T06:23:35.056Z,99876.19
2023-05-02T06:33:36.682Z,99883.22
2023-05-02T06:43:38.095Z,99906.09
2023-05-02T06:53:39.616Z,99913.13
2023-05-02T07:03:41.112Z,99926.84
2023-05-02T07:13:43.094Z,99942.06
2023-05-02T07:23:44.785Z,99960.09
2023-05-02T07:33:46.190Z,99979.22
2023-05-02T07:43:47.775Z,99979.47
2023-05-02T07:53:50.340Z,99997.00
2023-05-02T08:03:52.426Z,100001.59
2023-05-02T08:13:54.213Z,100016.50
2023-05-02T08:23:58.105Z,100030.03
2023-05-02T08:33:59.510Z,100028.38
2023-05-02T08:44:01.027Z,100039.38
2023-05-02T08:54:03.486Z,100061.00
2023-05-02T09:04:05.312Z,100071.06
2023-05-02T09:14:16.389Z,100091.75
2023-05-02T09:24:18.593Z,100102.72
2023-05-02T09:34:20.030Z,100112.72
2023-05-02T09:44:25.357Z,100137.28
2023-05-02T09:54:36.131Z,100141.91
2023-05-02T10:04:37.704Z,100148.75
2023-05-02T10:14:46.122Z,100160.09
2023-05-02T10:24:48.790Z,100155.72
2023-05-02T10:34:50.441Z,100170.34
2023-05-02T10:44:52.065Z,100175.97
2023-05-02T10:55:04.493Z,100171.97
2023-05-02T11:05:08.974Z,100184.75
2023-05-02T11:15:13.200Z,100168.28
2023-05-02T11:25:48.256Z,100183.72
2023-05-02T11:35:49.717Z,100173.06
2023-05-02T11:45:51.295Z,100177.41
2023-05-02T11:55:57.378Z,100189.88
2023-05-02T12:06:11.068Z,100194.25
2023-05-02T12:16:12.749Z,100198.81
2023-05-02T12:26:21.803Z,100215.84
2023-05-02T12:36:24.024Z,100220.22
2023-05-02T12:46:26.972Z,100220.66
2023-05-02T12:56:32.078Z,100228.81
2023-05-02T13:06:33.594Z,100248.94
2023-05-02T13:16:36.349Z,100243.38
2023-05-02T13:26:37.944Z,100248.38
2023-05-02T13:36:46.711Z,100249.38
2023-05-02T13:46:48.251Z,100261.59
2023-05-02T13:56:49.649Z,100263.66
2023-05-02T14:06:51.200Z,100261.31
2023-05-02T14:16:52.647Z,100267.94
2023-05-02T14:26:54.172Z,100271.59
2023-05-02T14:36:55.982Z,100269.19
2023-05-02T14:46:57.393Z,100259.09
2023-05-02T14:56:59.458Z,100270.00
2023-05-02T15:07:01.329Z,100250.88
2023-05-02T15:17:03.241Z,100254.13
2023-05-02T15:27:04.679Z,100249.31
2023-05-02T15:37:06.206Z,100242.78
2023-05-02T15:47:08.299Z,100263.72
2023-05-02T15:57:12.483Z,100269.00
2023-05-02T16:07:13.956Z,100259.22
2023-05-02T16:17:15.496Z,100265.84
2023-05-02T16:27:17.098Z,100263.91
2023-05-02T16:37:18.529Z,100269.66
2023-05-02T16:47:20.133Z,100274.22
2023-05-02T16:57:21.658Z,100275.97
2023-05-02T17:17:24.558Z,100268.72
2023-05-02T17:27:26.309Z,100285.25
2023-05-02T17:37:27.989Z,100279.28
2023-05-02T17:47:29.410Z,100288.94
2023-05-02T17:57:30.988Z,100285.50
2023-05-02T18:07:32.502Z,100302.00
2023-05-02T18:17:33.948Z,100303.75
2023-05-02T18:27:35.475Z,100317.09
2023-05-02T18:37:37.033Z,100318.00
2023-05-02T18:47:38.445Z,100328.47
2023-05-02T18:57:39.946Z,100327.50
2023-05-02T19:07:41.355Z,100338.31
2023-05-02T19:17:44.173Z,100349.00
2023-05-02T19:27:47.594Z,100354.25
2023-05-02T19:37:48.992Z,100377.47
2023-05-02T19:47:50.454Z,100383.38
2023-05-02T19:57:52.002Z,100392.66
2023-05-02T20:07:53.378Z,100387.31
2023-05-02T20:17:56.917Z,100395.75
2023-05-02T20:27:58.378Z,100403.50
2023-05-02T20:37:59.772Z,100408.38
2023-05-02T20:48:01.402Z,100420.31
2023-05-02T20:58:02.882Z,100420.00
2023-05-02T21:08:04.433Z,100432.09
2023-05-02T21:18:06.831Z,100436.16
2023-05-02T21:28:08.616Z,100429.44
2023-05-02T21:38:10.250Z,100432.16
2023-05-02T21:48:12.984Z,100432.69
2023-05-02T21:58:14.568Z,100452.84
2023-05-02T22:08:16.190Z,100447.94
2023-05-02T22:18:17.847Z,100454.69
2023-05-02T22:28:19.318Z,100459.72
2023-05-02T22:38:20.695Z,100468.13
2023-05-02T22:48:22.083Z,100461.75
2023-05-02T22:58:24.797Z,100462.25
2023-05-02T23:08:26.303Z,100463.44
2023-05-02T23:18:27.888Z,100447.50
2023-05-02T23:28:29.568Z,100451.50
2023-05-02T23:38:31.272Z,100451.50
2023-05-02T23:48:32.808Z,100447.63
2023-05-02T23:58:34.341Z,100443.94
